Time;durP1;ratioP1;P1;durP2;ratioP2;P2;SDS_P1;SDS_P2;PMS_P1;PMS_P2;Temp;Humidity;BMP_temperature;BMP_pressure;BME280_temperature;BME280_humidity;BME280_pressure;Samples;Min_cycle;Max_cycle;Signal;HPM_P1;HPM_P2
2023/02/01 00:01:43;;;;;;;;;6.50;6.25;;;;;10.79;69.96;102336.00;5059617;28;46769;-66
2023/02/01 00:04:08;;;;;;;;;6.50;6.25;;;;;10.75;70.07;102327.13;5075589;28;45488;-66
2023/02/01 00:06:33;;;;;;;;;9.25;8.00;;;;;10.73;70.50;102324.47;5074436;27;45484;-66
2023/02/01 00:13:51;;;;;;;;;9.50;8.25;;;;;10.75;70.30;102338.69;5050206;28;73076;-66
2023/02/01 00:16:22;;;;;;;;;4.00;4.00;;;;;10.71;70.46;102333.41;5065797;28;45491;-66
2023/02/01 00:18:50;;;;;;;;;9.00;7.50;;;;;10.77;70.73;102333.34;5073598;27;45456;-65
2023/02/01 00:21:18;;;;;;;;;9.00;9.00;;;;;10.83;70.28;102332.41;5080374;27;45587;-66
2023/02/01 00:23:43;;;;;;;;;10.50;9.00;;;;;10.83;70.43;102329.75;5074251;28;45387;-66
2023/02/01 00:26:16;;;;;;;;;4.75;4.75;;;;;10.85;70.24;102319.94;5066103;27;45302;-66
2023/02/01 00:28:41;;;;;;;;;8.50;6.50;;;;;10.83;70.08;102316.38;5079308;27;45493;-66
2023/02/01 00:31:07;;;;;;;;;6.00;4.00;;;;;10.84;70.25;102318.13;5063698;27;45395;-66
2023/02/01 00:33:33;;;;;;;;;8.00;8.00;;;;;10.83;70.54;102308.38;5059317;28;45431;-66
2023/02/01 00:36:01;;;;;;;;;6.25;6.25;;;;;10.85;70.62;102314.59;5068807;28;45401;-66
2023/02/01 00:38:28;;;;;;;;;9.00;6.50;;;;;10.83;69.85;102300.34;5079308;27;45481;-66
2023/02/01 00:40:53;;;;;;;;;7.75;7.00;;;;;10.84;69.77;102303.03;5079456;27;45417;-66
2023/02/01 00:43:19;;;;;;;;;5.25;5.25;;;;;10.83;69.89;102301.25;5079265;27;46377;-66
2023/02/01 00:45:45;;;;;;;;;8.00;6.00;;;;;10.86;70.08;102301.22;5077667;27;45432;-66
2023/02/01 00:48:11;;;;;;;;;7.50;7.50;;;;;10.83;70.07;102303.91;5067035;27;45529;-66
2023/02/01 00:50:44;;;;;;;;;5.50;5.50;;;;;10.86;69.77;102308.31;5069103;28;45504;-66
2023/02/01 00:53:10;;;;;;;;;6.25;4.75;;;;;10.88;70.00;102311.88;5072430;27;45683;-66
2023/02/01 00:55:36;;;;;;;;;7.25;5.00;;;;;10.88;69.49;102302.06;5076791;28;45415;-66
2023/02/01 00:58:01;;;;;;;;;5.50;4.50;;;;;10.88;69.50;102303.88;5066768;28;45617;-66
2023/02/01 01:00:26;;;;;;;;;6.25;6.25;;;;;10.84;69.88;102302.13;5076820;28;46039;-66
2023/02/01 01:02:52;;;;;;;;;5.75;5.75;;;;;10.85;69.82;102311.91;5079162;27;45347;-66
2023/02/01 01:05:17;;;;;;;;;9.75;5.25;;;;;10.82;69.46;102320.81;5079301;28;45365;-66
2023/02/01 01:07:42;;;;;;;;;8.75;8.00;;;;;10.81;69.79;102312.81;5078268;27;45384;-65
2023/02/01 01:10:08;;;;;;;;;4.00;3.25;;;;;10.80;69.45;102309.28;5076427;28;45493;-66
2023/02/01 01:12:34;;;;;;;;;7.75;5.00;;;;;10.84;69.44;102318.13;5079237;27;45295;-66
2023/02/01 01:14:59;;;;;;;;;4.50;2.50;;;;;10.75;69.21;102317.31;5078128;28;45495;-66
2023/02/01 01:17:24;;;;;;;;;7.00;4.75;;;;;10.80;69.55;102333.31;5079190;27;45476;-66
2023/02/01 01:19:49;;;;;;;;;5.00;5.00;;;;;10.81;69.56;102331.50;5078709;27;45500;-66
2023/02/01 01:22:15;;;;;;;;;7.75;5.00;;;;;10.82;69.29;102330.63;5064261;28;45587;-66
2023/02/01 01:24:40;;;;;;;;;7.75;6.25;;;;;10.78;69.75;102315.53;5065585;28;45225;-66
2023/02/01 01:27:05;;;;;;;;;5.00;5.00;;;;;10.80;69.26;102325.28;5078751;27;45256;-66
2023/02/01 01:29:31;;;;;;;;;8.00;6.25;;;;;10.77;69.24;102332.44;5078805;28;45563;-66
2023/02/01 01:31:56;;;;;;;;;4.75;3.50;;;;;10.80;69.59;102335.09;5078998;27;45372;-66
2023/02/01 01:34:21;;;;;;;;;5.75;5.25;;;;;10.80;69.44;102327.97;5078973;27;45369;-66
2023/02/01 01:36:47;;;;;;;;;7.50;4.50;;;;;10.78;69.21;102328.91;5065043;27;45486;-66
2023/02/01 01:39:12;;;;;;;;;5.00;3.75;;;;;10.79;69.27;102341.34;5058176;28;45353;-66
2023/02/01 01:41:37;;;;;;;;;5.25;4.00;;;;;10.80;69.28;102346.66;5060769;28;45347;-66
2023/02/01 01:44:44;;;;;;;;;4.75;4.75;;;;;10.81;69.59;102345.78;5074471;28;45326;-66
2023/02/01 01:47:09;;;;;;;;;4.75;4.25;;;;;10.79;69.25;102339.53;5061613;28;45432;-66
2023/02/01 01:49:35;;;;;;;;;5.75;3.75;;;;;10.74;69.07;102336.94;5072900;28;45308;-66
2023/02/01 01:52:02;;;;;;;;;5.50;4.50;;;;;10.77;69.33;102341.34;5062715;28;45420;-66
2023/02/01 01:54:54;;;;;;;;;3.25;3.25;;;;;10.73;69.09;102343.16;5061971;28;45364;-66
2023/02/01 01:57:41;;;;;;;;;5.00;4.50;;;;;10.77;69.03;102349.34;5068555;27;45719;-66
2023/02/01 02:00:10;;;;;;;;;3.25;3.25;;;;;10.76;68.66;102342.25;5081736;28;46236;-66
2023/02/01 02:02:38;;;;;;;;;6.00;4.50;;;;;10.78;68.30;102342.25;5081972;27;45415;-66
2023/02/01 02:05:04;;;;;;;;;5.50;4.00;;;;;10.76;68.23;102344.94;5082258;28;45436;-66
2023/02/01 02:07:33;;;;;;;;;2.75;2.50;;;;;10.74;67.81;102347.63;5081748;27;45401;-66
2023/02/01 02:10:00;;;;;;;;;5.25;3.25;;;;;10.73;68.18;102340.47;5069762;27;46383;-66
2023/02/01 02:12:25;;;;;;;;;4.00;4.00;;;;;10.72;67.10;102349.38;5081874;28;45620;-66
2023/02/01 02:14:52;;;;;;;;;5.00;3.75;;;;;10.72;67.46;102345.84;5075475;27;45438;-65
2023/02/01 02:17:38;;;;;;;;;7.50;4.00;;;;;10.71;66.69;102338.75;5061747;28;45347;-66
2023/02/01 02:20:12;;;;;;;;;4.25;4.00;;;;;10.70;66.30;102345.84;5076628;28;46216;-66
2023/02/01 02:23:12;;;;;;;;;3.00;3.00;;;;;10.63;66.30;102336.13;5073389;28;45263;-66
2023/02/01 02:25:52;;;;;;;;;5.00;2.50;;;;;10.65;66.22;102334.31;5061601;28;45327;-66
2023/02/01 02:28:39;;;;;;;;;4.25;2.25;;;;;10.66;66.04;102337.84;5061396;28;45370;-66
2023/02/01 02:31:21;;;;;;;;;3.75;2.00;;;;;10.61;65.71;102329.91;5061177;28;46330;-66
2023/02/01 02:33:49;;;;;;;;;2.25;2.25;;;;;10.65;65.23;102336.09;5061335;28;45630;-66
2023/02/01 02:36:39;;;;;;;;;4.75;3.00;;;;;10.65;65.63;102344.13;5074246;28;45409;-66
2023/02/01 02:39:17;;;;;;;;;2.75;1.00;;;;;10.65;65.77;102334.31;5062347;28;45726;-66
2023/02/01 02:47:40;;;;;;;;;3.25;3.25;;;;;10.63;64.95;102317.41;5061241;28;45381;-66
2023/02/01 03:04:20;;;;;;;;;4.25;2.50;;;;;10.65;64.57;102339.66;5060717;28;45685;-66
2023/02/01 03:06:46;;;;;;;;;2.50;2.50;;;;;10.61;64.47;102335.25;5060909;28;45430;-66
2023/02/01 03:09:29;;;;;;;;;3.25;3.00;;;;;10.54;64.38;102338.84;5061429;28;45409;-66
2023/02/01 03:14:49;;;;;;;;;5.00;3.00;;;;;10.50;64.93;102343.31;5066233;27;45391;-66
2023/02/01 03:17:21;;;;;;;;;1.00;1.00;;;;;10.47;64.56;102337.09;5069132;27;45379;-66
2023/02/01 03:19:51;;;;;;;;;3.00;2.25;;;;;10.49;64.84;102341.56;5061775;28;45324;-66
2023/02/01 03:22:31;;;;;;;;;2.75;1.00;;;;;10.51;64.76;102338.88;5080272;28;45417;-66
2023/02/01 03:25:02;;;;;;;;;2.50;2.25;;;;;10.54;64.81;102336.16;5060515;28;46921;-66
2023/02/01 03:27:46;;;;;;;;;3.00;2.00;;;;;10.53;64.31;102348.63;5060192;28;45508;-66
2023/02/01 03:30:26;;;;;;;;;1.25;1.25;;;;;10.54;64.50;102338.84;5060745;28;45375;-66
2023/02/01 03:32:59;;;;;;;;;4.25;3.00;;;;;10.55;64.06;102345.97;5068049;28;45315;-66
2023/02/01 03:35:39;;;;;;;;;5.50;2.00;;;;;10.53;63.73;102327.28;5070923;27;45613;-66
2023/02/01 03:38:20;;;;;;;;;3.75;2.00;;;;;10.53;63.83;102340.63;5069757;27;45472;-66
2023/02/01 03:40:53;;;;;;;;;3.00;2.00;;;;;10.53;64.10;102345.97;5060307;28;45559;-66
2023/02/01 03:43:22;;;;;;;;;3.75;3.25;;;;;10.48;63.74;102349.56;5071113;28;45605;-65
2023/02/01 03:45:54;;;;;;;;;3.25;3.00;;;;;10.48;63.98;102350.44;5066737;28;47178;-66
2023/02/01 03:48:23;;;;;;;;;2.00;2.00;;;;;10.46;63.57;102341.56;5076803;28;45318;-66
2023/02/01 03:50:55;;;;;;;;;5.00;3.00;;;;;10.42;63.85;102331.78;5060431;28;45599;-65
2023/02/01 03:53:23;;;;;;;;;3.00;2.00;;;;;10.47;63.50;102331.78;5059867;28;45421;-65
2023/02/01 03:55:50;;;;;;;;;2.25;2.00;;;;;10.51;63.10;102334.41;5060112;28;45294;-66
2023/02/01 03:58:19;;;;;;;;;2.00;2.00;;;;;10.51;63.22;102338.88;5059747;28;45608;-66
2023/02/01 04:00:51;;;;;;;;;2.75;2.75;;;;;10.53;63.07;102331.75;5060122;28;45480;-66
2023/02/01 04:03:17;;;;;;;;;1.25;1.25;;;;;10.56;63.01;102331.72;5059277;28;45311;-66
2023/02/01 04:05:42;;;;;;;;;2.00;1.00;;;;;10.52;62.80;102332.63;5059960;28;46584;-68
2023/02/01 04:08:07;;;;;;;;;3.00;1.00;;;;;10.47;62.24;102323.75;5059456;28;45229;-65
2023/02/01 04:10:33;;;;;;;;;2.00;1.00;;;;;10.55;62.56;102348.63;5072239;28;45315;-66
2023/02/01 04:12:58;;;;;;;;;3.75;3.00;;;;;10.52;62.75;102341.53;5061000;27;46975;-66
2023/02/01 04:15:24;;;;;;;;;7.75;2.50;;;;;10.54;62.18;102336.16;5068979;28;46385;-66
2023/02/01 04:17:49;;;;;;;;;1.00;1.00;;;;;10.49;62.46;102327.31;5063188;28;45342;-66
2023/02/01 04:20:15;;;;;;;;;4.00;2.25;;;;;10.51;62.25;102331.75;5077751;28;45335;-66
2023/02/01 04:22:40;;;;;;;;;3.00;3.00;;;;;10.52;62.26;102340.63;5076298;27;45552;-66
2023/02/01 04:25:06;;;;;;;;;4.75;2.75;;;;;10.53;62.34;102329.94;5059565;28;45295;-67
2023/02/01 04:27:31;;;;;;;;;5.00;2.00;;;;;10.53;62.11;102339.75;5059381;28;45674;-66
2023/02/01 04:29:57;;;;;;;;;2.25;1.25;;;;;10.53;62.01;102337.09;5059819;28;45412;-66
2023/02/01 04:32:22;;;;;;;;;3.75;2.00;;;;;10.56;61.84;102347.75;5071406;28;45662;-66
2023/02/01 04:34:48;;;;;;;;;4.00;1.00;;;;;10.55;61.98;102333.47;5069700;28;45360;-66
2023/02/01 04:37:13;;;;;;;;;2.50;2.00;;;;;10.55;61.80;102345.97;5074762;28;45567;-66
2023/02/01 04:39:38;;;;;;;;;2.75;1.50;;;;;10.55;62.04;102345.97;5069569;28;45497;-66
2023/02/01 04:42:04;;;;;;;;;1.50;1.25;;;;;10.53;61.55;102337.09;5064559;27;45488;-66
2023/02/01 04:44:29;;;;;;;;;4.00;2.50;;;;;10.56;62.19;102343.28;5073452;27;46227;-66
2023/02/01 04:46:54;;;;;;;;;2.25;1.00;;;;;10.51;61.75;102338.88;5062709;27;45315;-66
2023/02/01 04:49:21;;;;;;;;;3.25;2.25;;;;;10.44;61.57;102327.34;5070541;28;45436;-66
2023/02/01 04:51:47;;;;;;;;;3.75;2.50;;;;;10.54;62.05;102347.75;5062725;28;46639;-66
2023/02/01 04:54:12;;;;;;;;;3.25;2.00;;;;;10.50;61.72;102337.97;5059004;28;45440;-66
2023/02/01 04:56:38;;;;;;;;;4.00;2.00;;;;;10.55;61.62;102349.50;5058937;28;45248;-66
2023/02/01 04:59:04;;;;;;;;;1.75;1.75;;;;;10.57;61.88;102350.41;5059433;28;45375;-66
2023/02/01 05:01:30;;;;;;;;;2.00;2.00;;;;;10.54;61.64;102346.84;5057679;28;45454;-66
2023/02/01 05:03:55;;;;;;;;;2.75;1.75;;;;;10.55;61.23;102354.84;5059040;28;46442;-66
2023/02/01 05:06:22;;;;;;;;;5.75;2.00;;;;;10.52;61.63;102359.31;5058851;28;45388;-66
2023/02/01 05:08:47;;;;;;;;;3.50;1.00;;;;;10.51;61.68;102366.47;5058908;28;45470;-66
2023/02/01 05:13:57;;;;;;;;;4.75;2.50;;;;;10.48;61.93;102362.91;5070039;28;45325;-66
2023/02/01 05:16:24;;;;;;;;;8.00;3.75;;;;;10.47;61.67;102364.69;5076284;28;46653;-66
2023/02/01 05:18:49;;;;;;;;;2.25;2.00;;;;;10.45;62.07;102363.81;5071871;28;45316;-66
2023/02/01 05:21:15;;;;;;;;;4.75;2.00;;;;;10.43;61.96;102364.75;5080169;28;45445;-66
2023/02/01 05:26:24;;;;;;;;;3.00;1.25;;;;;10.36;62.04;102361.22;5069592;28;45598;-66
2023/02/01 05:28:50;;;;;;;;;4.25;2.00;;;;;10.32;62.10;102371.03;5081591;27;46003;-66
2023/02/01 05:31:16;;;;;;;;;4.00;3.00;;;;;10.30;62.42;102366.53;5082640;27;45574;-66
2023/02/01 05:33:41;;;;;;;;;2.00;1.00;;;;;10.28;62.31;102360.34;5082431;27;46343;-66
2023/02/01 05:36:10;;;;;;;;;2.00;1.00;;;;;10.26;61.86;102365.69;5074842;27;45585;-66
2023/02/01 05:38:35;;;;;;;;;2.25;2.25;;;;;10.25;62.23;102366.56;5074172;28;45291;-66
2023/02/01 05:41:00;;;;;;;;;2.00;2.00;;;;;10.27;62.29;102378.09;5062284;28;45619;-66
2023/02/01 05:43:26;;;;;;;;;2.00;2.00;;;;;10.25;62.42;102379.91;5065966;28;45978;-66
2023/02/01 05:45:52;;;;;;;;;1.50;1.50;;;;;10.26;62.37;102387.03;5062906;28;45396;-66
2023/02/01 05:48:17;;;;;;;;;4.50;2.00;;;;;10.26;62.59;102387.03;5065437;28;45565;-66
2023/02/01 05:50:43;;;;;;;;;2.50;2.50;;;;;10.26;62.30;102389.69;5060569;28;46060;-66
2023/02/01 05:53:09;;;;;;;;;4.50;2.75;;;;;10.27;62.80;102382.56;5061385;28;45396;-67
2023/02/01 05:55:35;;;;;;;;;3.00;3.00;;;;;10.27;62.69;102374.56;5061491;28;45339;-66
2023/02/01 05:58:01;;;;;;;;;4.00;2.00;;;;;10.28;62.80;102379.91;5061502;28;45404;-66
2023/02/01 06:00:26;;;;;;;;;3.00;2.25;;;;;10.27;62.91;102383.44;5061404;28;45299;-66
2023/02/01 06:02:52;;;;;;;;;8.75;3.75;;;;;10.26;63.10;102380.81;5061357;28;45497;-66
2023/02/01 06:05:17;;;;;;;;;2.00;1.50;;;;;10.24;62.88;102367.47;5061688;28;45421;-66
2023/02/01 06:07:43;;;;;;;;;5.75;2.00;;;;;10.29;62.47;102378.09;5060915;28;45451;-66
2023/02/01 06:10:09;;;;;;;;;7.50;2.00;;;;;10.27;62.51;102372.78;5061516;28;45705;-66
2023/02/01 06:12:35;;;;;;;;;3.25;2.00;;;;;10.32;62.86;102378.13;5060865;28;46165;-66
2023/02/01 06:15:00;;;;;;;;;1.00;1.00;;;;;10.33;62.39;102391.47;5081579;28;45330;-66
2023/02/01 06:17:26;;;;;;;;;2.75;1.75;;;;;10.33;62.28;102387.91;5068443;27;45407;-66
2023/02/01 06:19:51;;;;;;;;;2.25;1.00;;;;;10.32;62.29;102387.03;5077842;28;45410;-66
2023/02/01 06:22:17;;;;;;;;;5.00;2.00;;;;;10.31;62.25;102382.56;5080941;28;46479;-66
2023/02/01 06:24:43;;;;;;;;;4.75;1.25;;;;;10.35;62.54;102384.34;5061228;28;45386;-66
2023/02/01 06:27:09;;;;;;;;;4.75;2.00;;;;;10.35;61.81;102391.47;5060816;28;45465;-66
2023/02/01 06:29:35;;;;;;;;;2.25;2.25;;;;;10.35;62.26;102378.13;5067988;28;45472;-66
2023/02/01 06:32:00;;;;;;;;;2.00;2.00;;;;;10.36;62.05;102394.13;5068619;27;46302;-66
2023/02/01 06:34:26;;;;;;;;;4.00;3.00;;;;;10.36;61.88;102383.44;5081721;27;45219;-66
2023/02/01 06:36:51;;;;;;;;;8.00;3.25;;;;;10.37;61.97;102385.22;5065296;27;45323;-66
2023/02/01 06:39:17;;;;;;;;;3.50;1.25;;;;;10.34;62.13;102390.59;5061201;28;45338;-66
2023/02/01 06:41:46;;;;;;;;;3.00;2.00;;;;;10.35;62.31;102392.34;5060906;28;46215;-66
2023/02/01 06:44:11;;;;;;;;;3.00;1.25;;;;;10.30;62.05;102367.41;5079168;28;45402;-75
2023/02/01 06:46:36;;;;;;;;;2.75;2.25;;;;;10.37;62.00;102373.66;5081131;27;45440;-75
2023/02/01 06:49:02;;;;;;;;;4.75;2.00;;;;;10.35;62.26;102380.78;5071136;28;45487;-77
2023/02/01 06:51:29;;;;;;;;;3.00;1.00;;;;;10.38;61.75;102391.44;5076270;28;45416;-76
2023/02/01 06:53:54;;;;;;;;;5.75;2.00;;;;;10.33;61.88;102383.47;5074086;28;45330;-76
2023/02/01 06:56:20;;;;;;;;;4.00;2.00;;;;;10.37;61.96;102392.34;5060772;28;45507;-76
2023/02/01 06:58:46;;;;;;;;;3.00;2.25;;;;;10.39;61.89;102401.25;5060735;28;45306;-78
2023/02/01 07:01:12;;;;;;;;;4.75;2.75;;;;;10.38;62.10;102400.34;5075106;28;46176;-75
2023/02/01 07:03:37;;;;;;;;;3.00;2.00;;;;;10.36;61.67;102404.81;5070876;27;45276;-76
2023/02/01 07:06:04;;;;;;;;;3.00;2.00;;;;;10.36;61.71;102407.47;5075116;28;45464;-77
2023/02/01 07:08:31;;;;;;;;;2.25;2.25;;;;;10.35;62.11;102394.13;5071954;27;45449;-77
2023/02/01 07:10:57;;;;;;;;;3.00;3.00;;;;;10.35;61.82;102396.81;5060534;28;47147;-76
2023/02/01 07:13:22;;;;;;;;;3.50;3.00;;;;;10.32;61.31;102389.72;5065690;28;45439;-76
2023/02/01 07:15:48;;;;;;;;;3.00;2.75;;;;;10.28;61.91;102392.34;5077892;27;45496;-76
2023/02/01 07:18:16;;;;;;;;;2.75;1.50;;;;;10.31;61.40;102409.25;5072662;28;46401;-76
2023/02/01 07:20:42;;;;;;;;;4.00;3.00;;;;;10.25;61.88;102406.59;5072495;28;47258;-76
2023/02/01 07:23:10;;;;;;;;;4.25;4.00;;;;;10.28;61.61;102419.06;5071888;28;45714;-76
2023/02/01 07:25:35;;;;;;;;;3.50;3.00;;;;;10.29;61.75;102424.38;5074035;28;45417;-75
2023/02/01 07:28:00;;;;;;;;;8.75;3.00;;;;;10.31;61.88;102430.59;5069363;28;45640;-75
2023/02/01 07:30:26;;;;;;;;;4.00;2.00;;;;;10.30;61.98;102433.28;5071434;28;45709;-76
2023/02/01 07:32:51;;;;;;;;;6.75;4.00;;;;;10.25;61.46;102424.41;5071839;28;45457;-74
2023/02/01 07:35:16;;;;;;;;;1.75;1.25;;;;;10.28;61.84;102443.06;5073500;28;45493;-75
2023/02/01 07:37:42;;;;;;;;;4.25;2.00;;;;;10.23;61.58;102436.88;5078472;27;45372;-78
2023/02/01 07:40:08;;;;;;;;;6.00;4.00;;;;;10.22;61.31;102437.75;5064542;28;45527;-76
2023/02/01 07:42:34;;;;;;;;;4.50;2.75;;;;;10.24;61.39;102443.97;5068979;28;45330;-76
2023/02/01 07:44:59;;;;;;;;;6.00;3.75;;;;;10.24;61.57;102452.88;5065332;28;45341;-76
2023/02/01 07:47:24;;;;;;;;;6.75;4.25;;;;;10.22;61.60;102459.97;5068941;28;45628;-76
2023/02/01 07:49:50;;;;;;;;;7.00;3.00;;;;;10.23;61.82;102464.44;5060143;27;46387;-66
2023/02/01 07:52:18;;;;;;;;;7.75;4.00;;;;;10.20;61.57;102468.00;5067575;27;45379;-66
2023/02/01 07:54:43;;;;;;;;;3.50;2.25;;;;;10.21;61.65;102471.56;5072100;27;45271;-66
2023/02/01 07:57:11;;;;;;;;;4.00;3.25;;;;;10.23;62.18;102485.78;5063829;28;45362;-66
2023/02/01 08:01:19;;;;;;;;;5.25;4.00;;;;;10.24;61.92;102482.25;5074717;27;45614;-66
2023/02/01 08:02:21;;;;;;;;;3.00;2.25;;;;;10.26;62.09;102483.13;5072819;28;45427;-66
2023/02/01 08:04:47;;;;;;;;;4.00;3.00;;;;;10.25;62.09;102480.44;5061720;27;45774;-66
2023/02/01 08:07:12;;;;;;;;;5.50;4.00;;;;;10.27;61.51;102490.19;5075898;27;45291;-66
2023/02/01 08:09:37;;;;;;;;;4.50;2.25;;;;;10.27;61.78;102486.66;5071614;27;46160;-66
2023/02/01 08:12:03;;;;;;;;;5.25;2.00;;;;;10.28;61.49;102480.44;5070283;27;45609;-66
2023/02/01 08:14:28;;;;;;;;;3.00;1.50;;;;;10.26;61.92;102472.44;5070338;27;45463;-66
2023/02/01 08:16:53;;;;;;;;;4.25;4.00;;;;;10.29;61.63;102476.84;5081016;27;45297;-66
2023/02/01 08:19:19;;;;;;;;;9.75;7.50;;;;;10.24;61.57;102466.22;5066008;27;46417;-67
2023/02/01 08:21:44;;;;;;;;;4.25;3.00;;;;;10.25;61.57;102465.31;5074782;27;45325;-67
2023/02/01 08:24:10;;;;;;;;;4.50;3.25;;;;;10.25;61.83;102465.31;5070576;28;45592;-67
2023/02/01 08:26:35;;;;;;;;;6.75;3.75;;;;;10.26;61.68;102459.09;5070514;27;45492;-66
2023/02/01 08:29:04;;;;;;;;;4.00;3.00;;;;;10.27;62.22;102460.84;5064607;27;46203;-67
2023/02/01 08:31:30;;;;;;;;;4.00;3.00;;;;;10.25;62.09;102461.75;5073807;27;45470;-67
2023/02/01 08:33:59;;;;;;;;;8.25;5.50;;;;;10.23;62.04;102451.09;5059380;28;45347;-67
2023/02/01 08:36:25;;;;;;;;;5.00;2.25;;;;;10.22;62.12;102451.97;5082691;27;45700;-67
2023/02/01 08:38:51;;;;;;;;;4.50;3.00;;;;;10.26;62.13;102455.53;5059882;27;46129;-66
2023/02/01 08:41:19;;;;;;;;;4.00;2.75;;;;;10.25;61.99;102445.75;5070868;27;45389;-66
2023/02/01 08:43:45;;;;;;;;;2.25;2.25;;;;;10.29;62.33;102453.75;5075087;28;45416;-66
2023/02/01 08:46:11;;;;;;;;;4.00;3.00;;;;;10.28;62.04;102451.97;5083340;27;45419;-66
2023/02/01 08:48:37;;;;;;;;;6.00;3.50;;;;;10.32;62.24;102434.19;5075641;27;45520;-66
2023/02/01 08:51:09;;;;;;;;;4.00;3.00;;;;;10.32;61.72;102434.19;5073013;27;46102;-66
2023/02/01 08:53:35;;;;;;;;;5.50;3.00;;;;;10.33;61.56;102436.84;5070307;28;45407;-66
2023/02/01 08:56:01;;;;;;;;;3.00;2.75;;;;;10.32;61.96;102424.41;5075122;27;45767;-66
2023/02/01 08:58:27;;;;;;;;;10.00;3.00;;;;;10.34;61.87;102421.72;5064983;28;46008;-66
2023/02/01 09:00:52;;;;;;;;;5.00;3.00;;;;;10.32;61.48;102424.41;5078699;27;45377;-65
2023/02/01 09:03:18;;;;;;;;;7.75;4.00;;;;;10.35;61.53;102435.03;5064058;28;45545;-65
2023/02/01 09:05:44;;;;;;;;;4.25;4.00;;;;;10.37;61.52;102433.28;5076412;27;45476;-64
2023/02/01 09:08:13;;;;;;;;;4.50;4.00;;;;;10.35;61.59;102429.72;5067695;27;45422;-65
2023/02/01 09:10:38;;;;;;;;;8.25;4.25;;;;;10.34;61.87;102433.28;5078752;27;45268;-65
2023/02/01 09:13:03;;;;;;;;;5.00;2.00;;;;;10.41;61.82;102439.50;5070760;28;45417;-66
2023/02/01 09:15:30;;;;;;;;;9.00;3.50;;;;;10.41;61.37;102444.84;5077889;27;45602;-65
2023/02/01 09:17:56;;;;;;;;;3.25;3.00;;;;;10.39;61.39;102438.63;5061270;28;47344;-66
2023/02/01 09:20:23;;;;;;;;;4.25;2.00;;;;;10.41;61.10;102450.16;5070909;27;45349;-65
2023/02/01 09:22:52;;;;;;;;;5.25;4.25;;;;;10.44;61.24;102449.25;5075550;27;45401;-65
2023/02/01 09:25:17;;;;;;;;;5.50;3.00;;;;;10.42;60.70;102454.59;5075333;27;45437;-65
2023/02/01 09:27:43;;;;;;;;;2.25;2.25;;;;;10.39;60.64;102449.28;5068158;28;46599;-66
2023/02/01 09:30:09;;;;;;;;;5.00;2.00;;;;;10.48;60.86;102477.72;5074639;27;45361;-65
2023/02/01 09:32:35;;;;;;;;;7.50;2.50;;;;;10.44;60.92;102476.84;5074884;27;45583;-65
2023/02/01 09:35:00;;;;;;;;;3.00;2.00;;;;;10.46;60.97;102483.06;5072551;27;45414;-65
2023/02/01 09:37:26;;;;;;;;;5.25;3.00;;;;;10.45;60.66;102485.75;5074426;28;47004;-65
2023/02/01 09:39:51;;;;;;;;;9.75;6.50;;;;;10.45;60.97;102499.09;5078272;27;45405;-65
2023/02/01 09:42:44;;;;;;;;;7.75;4.75;;;;;10.48;60.68;102512.44;5077733;28;45413;-65
2023/02/01 09:45:40;;;;;;;;;3.50;3.50;;;;;10.45;60.84;102494.63;5078065;27;45434;-65
2023/02/01 09:48:24;;;;;;;;;10.25;2.25;;;;;10.47;60.88;102495.50;5048362;28;46493;-65
2023/02/01 09:50:54;;;;;;;;;2.00;2.00;;;;;10.51;60.39;102509.75;5077653;27;45568;-65
2023/02/01 09:53:37;;;;;;;;;4.50;3.00;;;;;10.48;60.51;102502.63;5065236;27;45504;-66
2023/02/01 09:56:18;;;;;;;;;2.25;2.25;;;;;10.51;60.56;102501.75;5071628;27;45463;-65
2023/02/01 09:59:04;;;;;;;;;4.25;3.25;;;;;10.56;60.24;102511.50;5071834;28;46513;-66
2023/02/01 10:01:30;;;;;;;;;3.50;3.50;;;;;10.57;60.41;102512.38;5073036;27;45551;-65
2023/02/01 10:04:03;;;;;;;;;3.75;3.00;;;;;10.59;60.30;102515.06;5080843;27;45517;-66
2023/02/01 10:06:37;;;;;;;;;10.25;2.00;;;;;10.58;60.59;102511.50;5066854;27;45605;-66
2023/02/01 10:09:35;;;;;;;;;4.50;3.00;;;;;10.59;60.42;102513.25;5072519;28;45584;-65
2023/02/01 10:12:00;;;;;;;;;2.25;2.00;;;;;10.61;60.21;102505.25;5046248;28;45342;-65
2023/02/01 10:14:46;;;;;;;;;4.25;3.50;;;;;10.62;60.61;102505.25;5079412;27;45846;-65
2023/02/01 10:17:24;;;;;;;;;6.00;3.75;;;;;10.64;60.31;102500.81;5070112;28;45398;-65
2023/02/01 10:20:18;;;;;;;;;3.00;2.00;;;;;10.60;60.17;102496.34;5079873;27;45344;-71
2023/02/01 10:23:15;;;;;;;;;3.25;2.75;;;;;10.57;60.47;102483.00;5061153;28;45674;-70
2023/02/01 10:25:53;;;;;;;;;4.75;3.00;;;;;10.67;60.29;102494.53;5064813;27;45583;-65
2023/02/01 10:28:21;;;;;;;;;4.00;4.00;;;;;10.68;60.25;102488.31;5061196;28;45350;-65
2023/02/01 10:30:48;;;;;;;;;3.25;2.00;;;;;10.68;60.11;102502.56;5072345;27;45583;-65
2023/02/01 10:33:27;;;;;;;;;8.25;4.50;;;;;10.70;59.93;102499.88;5061285;28;45356;-65
2023/02/01 10:35:58;;;;;;;;;2.25;2.25;;;;;10.72;60.07;102509.63;5072080;27;45485;-66
2023/02/01 10:38:33;;;;;;;;;8.00;5.75;;;;;10.73;59.51;102511.44;5073867;28;45385;-66
2023/02/01 10:41:03;;;;;;;;;9.25;7.50;;;;;10.71;59.60;102504.34;5074453;27;45835;-65
2023/02/01 10:43:29;;;;;;;;;4.50;1.50;;;;;10.72;59.50;102504.28;5062867;28;45311;-66
2023/02/01 10:45:55;;;;;;;;;10.75;4.00;;;;;10.72;59.63;102498.06;5063752;27;45385;-66
2023/02/01 10:48:20;;;;;;;;;3.25;2.50;;;;;10.71;59.70;102491.84;5060562;28;45390;-66
2023/02/01 10:50:59;;;;;;;;;4.75;3.00;;;;;10.73;59.41;102490.06;5074841;27;46088;-65
2023/02/01 10:53:42;;;;;;;;;5.00;3.00;;;;;10.74;59.41;102478.50;5060561;28;45394;-66
2023/02/01 10:56:12;;;;;;;;;4.50;2.00;;;;;10.76;59.70;102489.16;5075113;27;45472;-65
2023/02/01 10:58:47;;;;;;;;;9.00;2.50;;;;;10.72;59.43;102474.91;5074398;28;45497;-66
2023/02/01 11:01:19;;;;;;;;;2.00;2.00;;;;;10.76;59.32;102473.16;5071054;27;45994;-65
2023/02/01 11:03:53;;;;;;;;;6.25;2.50;;;;;10.79;59.53;102469.56;5075224;27;45419;-65
2023/02/01 11:06:45;;;;;;;;;6.25;5.00;;;;;10.80;59.10;102466.88;5072319;27;45437;-66
2023/02/01 11:09:20;;;;;;;;;5.25;4.50;;;;;10.77;59.64;102458.00;5071770;27;45339;-66
2023/02/01 11:11:46;;;;;;;;;3.25;3.00;;;;;10.80;59.28;102474.88;5074336;27;45565;-66
2023/02/01 11:14:19;;;;;;;;;5.00;5.00;;;;;10.80;59.09;102472.22;5067831;28;45467;-66
2023/02/01 11:16:52;;;;;;;;;6.00;3.00;;;;;10.81;59.00;102470.41;5062555;27;45425;-65
2023/02/01 11:19:17;;;;;;;;;3.50;3.50;;;;;10.83;59.49;102471.31;5080774;27;45272;-65
2023/02/01 11:21:46;;;;;;;;;2.25;2.25;;;;;10.84;59.19;102474.00;5072622;27;48101;-65
2023/02/01 11:24:35;;;;;;;;;7.25;4.25;;;;;10.81;59.51;102455.31;5060217;28;45402;-66
2023/02/01 11:27:04;;;;;;;;;4.50;4.25;;;;;10.90;59.59;102462.38;5064213;27;45358;-66
2023/02/01 11:29:36;;;;;;;;;4.50;3.25;;;;;10.90;59.91;102468.59;5074643;28;45465;-65
2023/02/01 11:32:03;;;;;;;;;5.00;3.00;;;;;10.90;59.57;102465.03;5063997;27;45551;-65
2023/02/01 11:34:35;;;;;;;;;2.50;2.50;;;;;10.92;59.40;102463.25;5071359;27;45587;-65
2023/02/01 11:37:03;;;;;;;;;5.50;2.00;;;;;10.98;59.66;102467.69;5078792;27;45506;-66
2023/02/01 11:39:34;;;;;;;;;3.25;3.25;;;;;10.99;59.47;102470.31;5077151;27;45627;-66
2023/02/01 11:42:05;;;;;;;;;4.25;3.00;;;;;11.00;59.66;102472.09;5075856;27;46163;-66
2023/02/01 11:44:34;;;;;;;;;11.50;3.75;;;;;11.02;59.56;102472.97;5078985;28;45635;-65
2023/02/01 11:47:22;;;;;;;;;4.25;2.75;;;;;11.00;59.80;102465.88;5080062;27;45460;-66
2023/02/01 11:49:50;;;;;;;;;7.00;4.75;;;;;11.03;59.83;102464.06;5071219;28;45355;-65
2023/02/01 11:52:32;;;;;;;;;3.75;2.75;;;;;11.03;60.02;102461.38;5071961;28;45701;-66
2023/02/01 11:55:26;;;;;;;;;3.00;3.00;;;;;11.08;59.71;102458.69;5060776;28;45721;-66
2023/02/01 11:58:19;;;;;;;;;3.50;3.00;;;;;11.10;59.82;102463.13;5048488;28;45515;-66
2023/02/01 12:01:06;;;;;;;;;5.00;5.00;;;;;11.12;59.55;102450.63;5045093;28;45356;-66
2023/02/01 12:03:53;;;;;;;;;4.00;4.00;;;;;11.12;59.89;102437.25;5068581;28;45506;-66
2023/02/01 12:06:47;;;;;;;;;5.00;3.50;;;;;11.12;59.58;102439.94;5073805;28;45465;-67
2023/02/01 12:09:37;;;;;;;;;3.00;3.00;;;;;11.11;59.87;102434.63;5062568;28;45414;-66